Time;durP1;ratioP1;P1;durP2;ratioP2;P2;SDS_P1;SDS_P2;PMS_P1;PMS_P2;Temp;Humidity;BMP_temperature;BMP_pressure;BME280_temperature;BME280_humidity;BME280_pressure;Samples;Min_cycle;Max_cycle;Signal;HPM_P1;HPM_P2
2022/09/21 00:01:17;;;;;;;12.67;6.70;;;6.60;99.90;;;;;;4384856;28;655438;-69
2022/09/21 00:04:04;;;;;;;10.90;6.37;;;6.60;99.90;;;;;;4392827;28;656204;-70
2022/09/21 00:06:52;;;;;;;13.13;6.37;;;6.50;99.90;;;;;;4373622;28;656047;-70
2022/09/21 00:09:39;;;;;;;9.90;5.90;;;6.50;99.90;;;;;;4394935;28;655166;-70
2022/09/21 00:12:26;;;;;;;14.27;6.23;;;6.50;99.90;;;;;;4370008;28;654577;-70
2022/09/21 00:15:14;;;;;;;9.53;5.90;;;6.50;99.90;;;;;;4385349;28;656025;-70
2022/09/21 00:18:02;;;;;;;11.97;5.77;;;6.30;99.90;;;;;;4373965;28;655001;-70
2022/09/21 00:20:51;;;;;;;16.03;6.07;;;6.30;99.90;;;;;;4386458;28;656514;-70
2022/09/21 00:23:39;;;;;;;10.00;5.67;;;6.30;99.90;;;;;;4362680;28;656261;-70
2022/09/21 00:26:27;;;;;;;12.90;6.00;;;6.30;99.90;;;;;;4359996;28;657320;-70
2022/09/21 00:29:14;;;;;;;16.25;6.22;;;6.30;99.90;;;;;;4392374;28;655865;-70
2022/09/21 00:32:01;;;;;;;10.83;5.83;;;6.30;99.90;;;;;;4369197;28;655683;-70
2022/09/21 00:34:49;;;;;;;10.43;5.90;;;6.30;99.90;;;;;;4392825;28;656082;-70
2022/09/21 00:37:36;;;;;;;11.50;5.97;;;6.40;99.90;;;;;;4370722;28;655540;-70
2022/09/21 00:40:24;;;;;;;14.33;6.40;;;6.50;99.90;;;;;;4393891;28;656396;-70
2022/09/21 00:43:13;;;;;;;11.93;6.73;;;6.60;99.90;;;;;;4367640;28;655217;-70
2022/09/21 00:46:01;;;;;;;10.70;6.80;;;6.70;99.90;;;;;;4368246;28;655311;-70
2022/09/21 00:48:48;;;;;;;13.83;7.47;;;6.80;99.90;;;;;;4391059;28;655040;-70
2022/09/21 00:51:36;;;;;;;12.10;7.00;;;6.80;99.90;;;;;;4374408;28;655944;-70
2022/09/21 00:54:25;;;;;;;15.83;8.50;;;7.00;99.90;;;;;;4390386;28;655818;-70
2022/09/21 00:57:14;;;;;;;16.57;9.40;;;7.00;99.90;;;;;;4369372;28;655824;-70
2022/09/21 01:00:02;;;;;;;24.47;13.77;;;7.10;99.90;;;;;;4372609;28;656610;-70
2022/09/21 01:02:50;;;;;;;22.03;11.57;;;7.30;99.90;;;;;;4392361;28;656944;-70
2022/09/21 01:05:37;;;;;;;25.93;13.17;;;7.40;99.90;;;;;;4371946;28;658394;-70
2022/09/21 01:08:25;;;;;;;27.57;15.90;;;7.50;99.90;;;;;;4386993;28;656412;-70
2022/09/21 01:11:25;;;;;;;30.40;17.37;;;7.60;99.90;;;;;;4372480;28;657851;-70
2022/09/21 01:14:25;;;;;;;27.37;16.07;;;7.70;99.90;;;;;;4348778;28;656754;-70
2022/09/21 01:17:14;;;;;;;36.17;19.03;;;7.80;99.90;;;;;;4366116;28;656256;-70
2022/09/21 01:20:29;;;;;;;33.80;18.67;;;7.80;99.90;;;;;;4371662;28;656881;-70
2022/09/21 01:23:35;;;;;;;32.17;18.57;;;7.90;99.90;;;;;;4365442;28;656938;-70
2022/09/21 01:26:26;;;;;;;33.23;18.33;;;7.90;99.90;;;;;;4340977;28;657330;-70
2022/09/21 01:29:16;;;;;;;32.27;18.80;;;8.00;99.90;;;;;;4366181;28;656919;-70
2022/09/21 01:32:06;;;;;;;32.77;20.20;;;8.00;99.90;;;;;;4372576;28;656640;-70
2022/09/21 01:34:55;;;;;;;40.33;21.50;;;8.00;99.90;;;;;;4374357;28;657309;-70
2022/09/21 01:37:44;;;;;;;34.77;21.33;;;8.00;99.90;;;;;;4367541;28;656874;-71
2022/09/21 01:40:33;;;;;;;41.80;22.57;;;8.00;99.90;;;;;;4373097;28;656411;-70
2022/09/21 01:43:24;;;;;;;41.60;21.53;;;8.00;99.90;;;;;;4367723;28;656552;-70
2022/09/21 01:46:14;;;;;;;39.33;19.83;;;8.00;99.90;;;;;;4373603;28;656276;-70
2022/09/21 01:49:03;;;;;;;40.23;23.03;;;8.10;99.90;;;;;;4369724;28;658395;-70
2022/09/21 01:51:52;;;;;;;36.27;19.43;;;8.00;99.90;;;;;;4364796;28;656978;-70
2022/09/21 01:54:40;;;;;;;39.20;22.37;;;8.10;99.90;;;;;;4389715;28;656613;-70
2022/09/21 01:57:30;;;;;;;35.67;21.92;;;8.00;99.90;;;;;;4367753;28;657040;-70
2022/09/21 02:00:17;;;;;;;37.87;22.07;;;7.90;99.90;;;;;;4365873;28;657508;-70
2022/09/21 02:03:07;;;;;;;35.90;20.77;;;7.90;99.90;;;;;;4387796;28;656795;-70
2022/09/21 02:05:56;;;;;;;34.90;20.90;;;8.00;99.90;;;;;;4389220;28;656732;-70
2022/09/21 02:08:43;;;;;;;34.10;20.13;;;8.00;99.90;;;;;;4381178;28;656831;-70
2022/09/21 02:11:30;;;;;;;32.20;19.60;;;8.00;99.90;;;;;;4374388;28;657135;-70
2022/09/21 02:14:20;;;;;;;35.13;21.07;;;8.00;99.90;;;;;;4394734;28;656514;-70
2022/09/21 02:17:15;;;;;;;35.87;20.13;;;8.00;99.90;;;;;;4371879;28;656537;-70
2022/09/21 02:20:07;;;;;;;34.07;20.23;;;8.00;99.90;;;;;;4350713;28;656956;-70
2022/09/21 02:23:03;;;;;;;34.23;19.87;;;8.00;99.90;;;;;;4369766;28;656361;-70
2022/09/21 02:25:54;;;;;;;37.80;20.00;;;8.00;99.90;;;;;;4352309;28;656836;-70
2022/09/21 02:28:43;;;;;;;36.77;21.23;;;8.00;99.90;;;;;;4372526;28;656793;-70
2022/09/21 02:31:32;;;;;;;33.73;20.80;;;7.90;99.90;;;;;;4372678;28;656828;-70
2022/09/21 02:34:22;;;;;;;33.47;20.00;;;7.90;99.90;;;;;;4388158;28;657045;-70
2022/09/21 02:37:12;;;;;;;35.90;20.53;;;8.00;99.90;;;;;;4374160;28;656659;-70
2022/09/21 02:40:01;;;;;;;35.33;20.10;;;7.90;99.90;;;;;;4374975;28;657113;-70
2022/09/21 02:42:48;;;;;;;37.73;19.67;;;7.80;99.90;;;;;;4365954;28;657412;-70
2022/09/21 02:45:39;;;;;;;33.60;20.80;;;7.90;99.90;;;;;;4369394;28;656367;-72
2022/09/21 02:48:28;;;;;;;36.43;20.23;;;7.90;99.90;;;;;;4367956;28;657421;-72
2022/09/21 02:51:17;;;;;;;32.60;19.83;;;7.90;99.90;;;;;;4368985;28;656329;-72
2022/09/21 02:54:06;;;;;;;36.33;21.27;;;7.90;99.90;;;;;;4391346;28;656412;-72
2022/09/21 02:56:54;;;;;;;29.47;17.30;;;7.90;99.90;;;;;;4364831;28;657246;-72
2022/09/21 02:59:41;;;;;;;34.70;20.88;;;7.80;99.90;;;;;;4368740;28;657100;-72
2022/09/21 03:02:36;;;;;;;36.63;21.10;;;7.80;99.90;;;;;;4395009;28;657495;-72
2022/09/21 03:05:23;;;;;;;39.80;20.93;;;7.80;99.90;;;;;;4361106;28;656259;-72
2022/09/21 03:08:11;;;;;;;35.47;18.37;;;7.90;99.90;;;;;;4373327;28;657393;-73
2022/09/21 03:10:59;;;;;;;32.57;20.40;;;7.90;99.90;;;;;;4393541;28;657403;-72
2022/09/21 03:13:46;;;;;;;37.07;20.33;;;7.90;99.90;;;;;;4369950;28;656568;-72
2022/09/21 03:16:33;;;;;;;41.93;21.77;;;7.90;99.90;;;;;;4389616;28;656880;-72
2022/09/21 03:19:20;;;;;;;37.30;21.63;;;7.90;99.90;;;;;;4368163;28;657505;-72
2022/09/21 03:22:08;;;;;;;41.40;22.30;;;7.90;99.90;;;;;;4365939;28;656421;-72
2022/09/21 03:24:56;;;;;;;37.43;22.77;;;7.80;99.90;;;;;;4357058;28;657092;-70
2022/09/21 03:27:44;;;;;;;42.97;22.90;;;7.90;99.90;;;;;;4368910;28;657248;-72
2022/09/21 03:30:31;;;;;;;41.23;21.67;;;7.80;99.90;;;;;;4351893;28;656935;-72
2022/09/21 03:33:19;;;;;;;38.27;21.40;;;7.80;99.90;;;;;;4367879;28;656758;-72
2022/09/21 03:36:07;;;;;;;38.47;21.90;;;7.80;99.90;;;;;;4352508;28;656423;-72
2022/09/21 03:38:55;;;;;;;42.63;23.87;;;7.80;99.90;;;;;;4364038;28;656513;-72
2022/09/21 03:41:42;;;;;;;38.97;23.10;;;7.80;99.90;;;;;;4376670;28;657709;-72
2022/09/21 03:44:31;;;;;;;43.37;23.03;;;7.80;99.90;;;;;;4363682;28;657465;-72
2022/09/21 03:47:19;;;;;;;35.30;20.63;;;7.80;99.90;;;;;;4368389;28;657248;-72
2022/09/21 03:50:07;;;;;;;40.20;22.30;;;7.80;99.90;;;;;;4346890;28;656534;-72
2022/09/21 03:52:54;;;;;;;39.33;21.10;;;7.90;99.90;;;;;;4375348;28;656319;-72
2022/09/21 03:55:41;;;;;;;43.40;23.13;;;7.90;99.90;;;;;;4349544;28;657213;-72
2022/09/21 03:58:28;;;;;;;43.40;21.60;;;7.90;99.90;;;;;;4366696;28;657330;-72
2022/09/21 04:01:17;;;;;;;38.73;21.23;;;7.80;99.90;;;;;;4351747;28;657142;-72
2022/09/21 04:04:04;;;;;;;42.33;19.98;;;7.90;99.90;;;;;;4373820;28;656922;-72
2022/09/21 04:06:51;;;;;;;41.30;20.53;;;7.80;99.90;;;;;;4347137;28;656795;-72
2022/09/21 04:09:38;;;;;;;38.17;19.27;;;7.90;99.90;;;;;;4378490;28;657431;-72
2022/09/21 04:12:25;;;;;;;48.47;24.17;;;7.90;99.90;;;;;;4352253;28;656343;-72
2022/09/21 04:15:13;;;;;;;55.37;24.57;;;7.80;99.90;;;;;;4364622;28;656976;-72
2022/09/21 04:18:02;;;;;;;50.40;24.27;;;7.90;99.90;;;;;;4349098;28;657429;-72
2022/09/21 04:20:49;;;;;;;62.93;24.73;;;7.80;99.90;;;;;;4370932;28;657143;-72
2022/09/21 04:23:36;;;;;;;53.53;25.23;;;7.80;99.90;;;;;;4358486;28;656870;-72
2022/09/21 04:26:25;;;;;;;61.93;26.10;;;7.80;99.90;;;;;;4377846;28;656476;-72
2022/09/21 04:29:12;;;;;;;51.70;21.50;;;7.80;99.90;;;;;;4368896;28;657869;-72
2022/09/21 04:31:59;;;;;;;52.93;21.67;;;7.80;99.90;;;;;;4383629;28;656771;-72
2022/09/21 04:34:47;;;;;;;41.40;20.17;;;7.80;99.90;;;;;;4367296;28;656632;-72
2022/09/21 04:37:35;;;;;;;39.17;21.50;;;7.80;99.90;;;;;;4376619;28;656598;-72
2022/09/21 04:40:22;;;;;;;56.92;20.33;;;7.90;99.90;;;;;;4378030;28;656684;-71
2022/09/21 04:43:10;;;;;;;46.33;20.00;;;7.70;99.90;;;;;;4366315;28;656453;-72
2022/09/21 04:45:57;;;;;;;58.33;22.60;;;7.80;99.90;;;;;;4395495;28;656315;-72
2022/09/21 04:48:45;;;;;;;52.77;21.60;;;7.80;99.90;;;;;;4382569;28;656907;-72
2022/09/21 04:51:33;;;;;;;54.60;20.07;;;7.80;99.90;;;;;;4358258;28;658015;-72
2022/09/21 04:54:20;;;;;;;60.50;21.77;;;7.70;99.90;;;;;;4369016;28;656829;-72
2022/09/21 04:57:07;;;;;;;83.87;22.37;;;7.70;99.90;;;;;;4392107;28;656983;-71
2022/09/21 04:59:54;;;;;;;52.33;18.33;;;7.60;99.90;;;;;;4385429;28;656334;-71
2022/09/21 05:02:41;;;;;;;55.10;19.33;;;7.70;99.90;;;;;;4374199;28;656898;-72
2022/09/21 05:05:28;;;;;;;53.33;17.37;;;7.70;99.90;;;;;;4393171;28;656988;-72
2022/09/21 05:10:01;;;;;;;37.03;19.63;;;7.70;99.90;;;;;;4369026;28;657128;-72
2022/09/21 05:11:23;;;;;;;40.35;18.33;;;7.70;99.90;;;;;;4373412;28;656956;-72
2022/09/21 05:14:10;;;;;;;55.63;20.70;;;7.70;99.90;;;;;;4370277;28;656897;-72
2022/09/21 05:16:57;;;;;;;42.30;19.10;;;7.70;99.90;;;;;;4390538;28;657775;-72
2022/09/21 05:19:45;;;;;;;53.03;21.40;;;7.60;99.90;;;;;;4384904;28;657025;-70
2022/09/21 05:22:32;;;;;;;55.10;22.07;;;7.70;99.90;;;;;;4387491;28;657391;-70
2022/09/21 05:25:21;;;;;;;66.97;24.03;;;7.70;99.90;;;;;;4383867;28;656193;-70
2022/09/21 05:28:08;;;;;;;70.60;24.03;;;7.80;99.90;;;;;;4355311;28;657164;-70
2022/09/21 05:30:58;;;;;;;61.30;21.30;;;7.70;99.90;;;;;;4353248;28;656276;-70
2022/09/21 05:33:50;;;;;;;58.07;21.70;;;7.70;99.90;;;;;;4346738;28;656105;-70
2022/09/21 05:36:42;;;;;;;63.07;22.70;;;7.70;99.90;;;;;;4351810;28;657609;-70
2022/09/21 05:39:29;;;;;;;55.27;21.57;;;7.70;99.90;;;;;;4353561;28;656379;-70
2022/09/21 05:42:18;;;;;;;61.67;23.37;;;7.80;99.90;;;;;;4349845;28;656697;-70
2022/09/21 05:45:07;;;;;;;66.60;24.67;;;7.80;99.90;;;;;;4367135;28;656363;-69
2022/09/21 05:47:59;;;;;;;72.77;22.47;;;7.80;99.90;;;;;;4387034;28;656604;-72
2022/09/21 05:50:55;;;;;;;130.10;23.73;;;7.90;99.90;;;;;;4355543;28;656621;-72
2022/09/21 05:54:01;;;;;;;84.40;22.43;;;7.90;99.90;;;;;;4321733;28;657606;-72
2022/09/21 05:56:51;;;;;;;69.20;22.00;;;7.80;99.90;;;;;;4347944;28;657155;-72
2022/09/21 05:59:49;;;;;;;76.80;21.27;;;7.70;99.90;;;;;;4343598;28;656888;-72
2022/09/21 06:02:46;;;;;;;53.93;20.73;;;7.70;99.90;;;;;;4325264;28;656522;-72
2022/09/21 06:05:33;;;;;;;62.43;19.43;;;7.80;99.90;;;;;;4360804;28;656565;-72
2022/09/21 06:08:20;;;;;;;58.10;21.80;;;7.90;99.90;;;;;;4357875;28;656539;-72
2022/09/21 06:11:08;;;;;;;46.83;19.97;;;8.00;99.90;;;;;;4388496;28;657918;-72
2022/09/21 06:13:55;;;;;;;76.20;19.77;;;8.00;99.90;;;;;;4376774;28;656511;-71
2022/09/21 06:16:43;;;;;;;67.00;21.47;;;7.90;99.90;;;;;;4398954;28;656804;-72
2022/09/21 06:19:31;;;;;;;46.93;21.00;;;8.00;99.90;;;;;;4357533;28;656793;-71
2022/09/21 06:22:18;;;;;;;49.47;21.47;;;8.00;99.90;;;;;;4371294;28;657153;-72
2022/09/21 06:25:06;;;;;;;46.27;20.20;;;8.00;99.90;;;;;;4368977;28;657160;-72
2022/09/21 06:27:53;;;;;;;44.10;18.67;;;8.10;99.90;;;;;;4393374;28;657667;-72
2022/09/21 06:30:41;;;;;;;43.90;18.53;;;8.10;99.90;;;;;;4363199;28;656590;-71
2022/09/21 06:33:30;;;;;;;36.13;15.53;;;8.00;99.90;;;;;;4394367;28;658138;-72
2022/09/21 06:36:17;;;;;;;45.77;19.40;;;8.10;99.90;;;;;;4367230;28;657949;-72
2022/09/21 06:39:04;;;;;;;44.37;19.97;;;8.10;99.90;;;;;;4380195;28;656741;-72
2022/09/21 06:41:52;;;;;;;45.25;21.02;;;8.10;99.90;;;;;;4364494;28;656590;-72
2022/09/21 06:44:39;;;;;;;44.93;21.37;;;8.20;99.90;;;;;;4370722;28;656898;-72
2022/09/21 06:47:26;;;;;;;43.90;20.90;;;8.10;99.90;;;;;;4361050;28;656520;-72
2022/09/21 06:50:15;;;;;;;50.10;19.67;;;8.20;99.90;;;;;;4378066;28;658280;-71
2022/09/21 06:53:02;;;;;;;50.73;20.63;;;8.10;99.90;;;;;;4336562;28;658169;-72
2022/09/21 06:55:49;;;;;;;49.73;21.10;;;8.10;99.90;;;;;;4364144;28;656507;-71
2022/09/21 06:58:37;;;;;;;48.17;19.17;;;8.20;99.90;;;;;;4325239;28;656291;-72
2022/09/21 07:01:24;;;;;;;44.10;20.50;;;8.30;99.90;;;;;;4363087;28;656875;-71
2022/09/21 07:04:11;;;;;;;50.47;20.83;;;8.40;99.90;;;;;;4352732;28;656779;-71
2022/09/21 07:07:00;;;;;;;45.80;18.70;;;8.30;99.90;;;;;;4370631;28;656629;-71
2022/09/21 07:09:47;;;;;;;47.87;20.20;;;8.40;99.90;;;;;;4350822;28;657616;-71
2022/09/21 07:12:34;;;;;;;43.10;19.83;;;8.60;99.90;;;;;;4386858;28;656136;-72
2022/09/21 07:15:22;;;;;;;43.67;18.73;;;8.50;99.90;;;;;;4354488;28;656754;-72
2022/09/21 07:18:13;;;;;;;45.27;21.57;;;8.60;99.90;;;;;;4384576;28;657280;-71
2022/09/21 07:21:02;;;;;;;49.10;22.33;;;8.50;99.90;;;;;;4368910;28;657217;-71
2022/09/21 07:23:51;;;;;;;45.20;22.30;;;8.40;99.90;;;;;;4380905;28;656454;-72
2022/09/21 07:26:38;;;;;;;49.90;23.03;;;8.40;99.90;;;;;;4348229;28;656451;-71
2022/09/21 07:29:25;;;;;;;55.23;23.73;;;8.40;99.90;;;;;;4339594;28;656391;-69
2022/09/21 07:32:12;;;;;;;46.33;22.13;;;8.40;99.90;;;;;;4358196;28;657898;-69
2022/09/21 07:35:01;;;;;;;47.23;21.03;;;8.50;99.90;;;;;;4360347;28;656831;-70
2022/09/21 07:37:48;;;;;;;41.67;20.13;;;8.60;99.90;;;;;;4366577;28;656698;-69
2022/09/21 07:40:36;;;;;;;42.57;19.57;;;8.60;99.90;;;;;;4360351;28;656995;-69
2022/09/21 07:43:23;;;;;;;37.57;19.00;;;8.50;99.90;;;;;;4380452;28;656931;-69
2022/09/21 07:46:11;;;;;;;34.97;18.23;;;8.70;99.90;;;;;;4363414;28;657106;-69
2022/09/21 07:48:58;;;;;;;34.70;18.90;;;8.90;99.90;;;;;;4380180;28;656481;-69
2022/09/21 07:51:45;;;;;;;26.50;14.70;;;9.00;99.90;;;;;;4358721;28;656552;-70
2022/09/21 07:54:33;;;;;;;33.47;15.63;;;9.00;99.90;;;;;;4377850;28;657178;-71
2022/09/21 08:00:33;;;;;;;26.47;14.17;;;9.00;99.90;;;;;;4322724;28;656752;-71
2022/09/21 08:03:20;;;;;;;26.47;14.63;;;9.00;99.90;;;;;;4346411;28;657151;-71
2022/09/21 08:06:08;;;;;;;20.87;11.90;;;9.10;99.90;;;;;;4365849;28;657497;-71
2022/09/21 08:08:55;;;;;;;24.57;13.97;;;9.10;99.90;;;;;;4364251;28;656406;-71
2022/09/21 08:11:45;;;;;;;20.60;12.60;;;9.20;99.90;;;;;;4384931;28;656010;-71
2022/09/21 08:14:33;;;;;;;20.47;11.17;;;9.10;99.90;;;;;;4359028;28;657086;-72
2022/09/21 08:17:20;;;;;;;19.40;11.60;;;8.90;99.90;;;;;;4361698;28;656333;-71
2022/09/21 08:20:08;;;;;;;19.90;11.83;;;9.10;99.90;;;;;;4385073;28;657824;-69
2022/09/21 08:22:55;;;;;;;20.33;11.63;;;9.20;99.90;;;;;;4364453;28;656650;-69
2022/09/21 08:25:43;;;;;;;15.30;10.47;;;9.10;99.90;;;;;;4389068;28;658240;-69
2022/09/21 08:28:30;;;;;;;11.83;7.70;;;9.10;99.90;;;;;;4367764;28;656414;-69
2022/09/21 08:31:20;;;;;;;13.70;8.90;;;9.10;99.90;;;;;;4386951;28;656537;-69
2022/09/21 08:34:07;;;;;;;18.00;9.87;;;9.10;99.90;;;;;;4363885;28;656730;-69
2022/09/21 08:36:54;;;;;;;16.87;8.90;;;9.20;99.90;;;;;;4374469;28;655375;-70
2022/09/21 08:39:41;;;;;;;12.83;7.77;;;9.40;99.90;;;;;;4361466;28;655635;-69
2022/09/21 08:42:37;;;;;;;13.50;8.70;;;9.10;99.90;;;;;;4382663;28;656858;-69
2022/09/21 08:45:27;;;;;;;15.00;9.07;;;9.00;99.90;;;;;;4366550;28;656693;-69
2022/09/21 08:48:18;;;;;;;14.80;8.20;;;8.90;99.90;;;;;;4367068;28;655455;-69
2022/09/21 08:51:06;;;;;;;13.10;7.90;;;9.10;99.90;;;;;;4354850;28;655431;-69
2022/09/21 08:53:55;;;;;;;14.10;8.20;;;9.10;99.90;;;;;;4381812;28;656304;-70
2022/09/21 08:56:42;;;;;;;12.43;8.33;;;9.20;99.90;;;;;;4367466;28;656790;-69
2022/09/21 08:59:29;;;;;;;11.67;7.33;;;9.10;99.90;;;;;;4380324;28;655216;-69
2022/09/21 09:02:38;;;;;;;12.37;7.43;;;9.20;99.90;;;;;;4363671;28;655704;-69
2022/09/21 09:05:35;;;;;;;14.00;7.67;;;9.20;99.90;;;;;;4342475;28;656175;-69
2022/09/21 09:09:01;;;;;;;13.00;8.17;;;9.10;99.90;;;;;;4340397;28;656008;-69
2022/09/21 09:11:56;;;;;;;12.20;7.47;;;9.10;99.90;;;;;;4343536;28;656040;-69
2022/09/21 09:15:02;;;;;;;11.30;6.83;;;9.10;99.90;;;;;;4338904;28;656257;-69
2022/09/21 09:17:53;;;;;;;10.50;6.60;;;9.10;99.90;;;;;;4343027;28;655821;-70
2022/09/21 09:20:43;;;;;;;5.93;3.77;;;9.20;99.90;;;;;;4360230;28;655382;-70
2022/09/21 09:23:32;;;;;;;13.75;7.85;;;9.10;99.90;;;;;;4369908;28;654576;-69
2022/09/21 09:26:21;;;;;;;13.10;7.77;;;9.10;99.90;;;;;;4382426;28;655470;-69
2022/09/21 09:29:14;;;;;;;13.20;9.33;;;9.20;99.90;;;;;;4368612;28;656120;-69
2022/09/21 09:32:01;;;;;;;14.83;9.10;;;9.30;99.90;;;;;;4356234;28;656287;-69
2022/09/21 09:34:52;;;;;;;11.07;7.77;;;9.30;99.90;;;;;;4383606;28;656129;-69
2022/09/21 09:37:40;;;;;;;13.73;8.87;;;9.30;99.90;;;;;;4354542;28;655228;-69
2022/09/21 09:40:48;;;;;;;12.60;7.80;;;9.50;99.90;;;;;;4348753;28;656155;-70
2022/09/21 09:43:42;;;;;;;19.80;9.27;;;9.50;99.90;;;;;;4333655;28;656041;-69
2022/09/21 09:46:31;;;;;;;12.50;8.73;;;9.50;99.90;;;;;;4360494;28;655986;-69
2022/09/21 09:49:28;;;;;;;13.20;8.53;;;9.60;99.90;;;;;;4368693;28;656044;-69
2022/09/21 09:52:16;;;;;;;13.30;9.10;;;9.40;99.90;;;;;;4341631;28;655557;-71
2022/09/21 09:55:12;;;;;;;13.90;9.37;;;9.60;99.90;;;;;;4389266;28;656039;-69
2022/09/21 09:57:59;;;;;;;16.03;9.67;;;9.50;99.90;;;;;;4364967;28;655547;-69
2022/09/21 10:00:47;;;;;;;16.20;8.87;;;9.50;99.90;;;;;;4352520;28;655199;-69
2022/09/21 10:03:36;;;;;;;13.53;8.50;;;9.90;99.90;;;;;;4387742;28;655297;-69
2022/09/21 10:06:30;;;;;;;11.83;7.43;;;10.10;99.90;;;;;;4389536;28;655657;-69
2022/09/21 10:09:19;;;;;;;13.80;8.07;;;10.10;99.90;;;;;;4361428;28;657483;-69
2022/09/21 10:12:17;;;;;;;13.77;7.50;;;10.20;99.90;;;;;;4366137;28;657428;-69
2022/09/21 10:15:10;;;;;;;20.33;8.13;;;10.30;99.90;;;;;;4361208;28;656754;-69
2022/09/21 10:17:58;;;;;;;12.27;8.30;;;10.20;99.90;;;;;;4338354;28;657397;-69
2022/09/21 10:20:56;;;;;;;11.63;7.87;;;10.50;99.90;;;;;;4350743;28;656500;-69
2022/09/21 10:23:46;;;;;;;13.97;7.90;;;10.80;99.90;;;;;;4348683;28;656881;-68
2022/09/21 10:26:35;;;;;;;14.27;8.97;;;10.40;99.90;;;;;;4343762;28;656394;-69
2022/09/21 10:29:32;;;;;;;11.50;7.80;;;10.60;99.90;;;;;;4342995;28;657700;-69
2022/09/21 10:32:21;;;;;;;9.53;6.93;;;10.80;99.90;;;;;;4341694;28;656608;-69
2022/09/21 10:35:17;;;;;;;13.00;7.57;;;11.00;99.90;;;;;;4347031;28;656184;-69
2022/09/21 10:38:12;;;;;;;12.93;7.40;;;11.10;99.90;;;;;;4361146;28;656297;-69
2022/09/21 10:40:59;;;;;;;10.53;7.07;;;10.80;99.90;;;;;;4358067;28;656785;-69
2022/09/21 10:43:46;;;;;;;10.23;6.53;;;10.80;99.90;;;;;;4364005;28;656763;-69
2022/09/21 10:46:35;;;;;;;11.30;6.17;;;11.20;99.90;;;;;;4383839;28;656858;-69
2022/09/21 10:49:23;;;;;;;11.30;6.43;;;11.20;99.90;;;;;;4364925;28;657135;-69
2022/09/21 10:52:10;;;;;;;10.33;6.70;;;11.80;99.90;;;;;;4362678;28;656630;-69
2022/09/21 10:54:58;;;;;;;8.13;4.73;;;12.30;99.90;;;;;;4382098;28;657698;-69
2022/09/21 10:57:45;;;;;;;8.80;5.33;;;12.30;99.90;;;;;;4379084;28;655921;-69
2022/09/21 11:00:42;;;;;;;10.02;5.53;;;11.80;99.90;;;;;;4386984;28;656071;-69
2022/09/21 11:03:40;;;;;;;9.40;5.50;;;11.40;99.90;;;;;;4361801;28;657317;-69
2022/09/21 11:06:29;;;;;;;7.70;4.88;;;10.90;99.90;;;;;;4337548;28;656654;-68
2022/09/21 11:09:18;;;;;;;10.57;4.33;;;10.80;99.90;;;;;;4361550;28;656264;-69
2022/09/21 11:12:10;;;;;;;13.80;6.83;;;10.60;99.90;;;;;;4363679;28;656266;-69
2022/09/21 11:15:00;;;;;;;12.63;6.47;;;10.50;99.90;;;;;;4359689;28;658265;-69
2022/09/21 11:17:49;;;;;;;15.17;7.27;;;10.70;99.90;;;;;;4365465;28;656722;-69
2022/09/21 11:20:41;;;;;;;11.50;7.50;;;10.90;99.90;;;;;;4363655;28;657202;-69
2022/09/21 11:23:42;;;;;;;13.93;7.83;;;11.40;99.90;;;;;;4364384;28;656874;-69
2022/09/21 11:26:30;;;;;;;12.50;7.70;;;11.40;99.90;;;;;;4357480;28;656740;-69
2022/09/21 11:29:18;;;;;;;12.35;7.25;;;11.60;99.90;;;;;;4370852;28;656818;-69
2022/09/21 11:32:12;;;;;;;11.93;6.57;;;11.80;99.90;;;;;;4372807;28;656609;-69
2022/09/21 11:35:31;;;;;;;11.63;7.30;;;11.80;99.90;;;;;;4368902;28;656885;-69
2022/09/21 11:38:25;;;;;;;14.57;7.10;;;12.30;99.90;;;;;;4368127;28;656845;-69
2022/09/21 11:41:25;;;;;;;14.77;6.83;;;13.50;99.90;;;;;;4365132;28;657080;-69
2022/09/21 11:44:22;;;;;;;9.37;5.53;;;13.80;99.90;;;;;;4341025;28;658124;-69
2022/09/21 11:47:17;;;;;;;12.33;6.13;;;14.70;99.90;;;;;;4364575;28;655897;-68
2022/09/21 11:50:30;;;;;;;8.07;5.43;;;15.20;99.90;;;;;;4356611;28;657723;-68
2022/09/21 11:53:39;;;;;;;8.90;5.80;;;15.10;99.90;;;;;;4317969;28;655695;-68
2022/09/21 11:56:35;;;;;;;6.80;4.83;;;14.30;99.90;;;;;;4329130;28;656465;-68
2022/09/21 11:59:42;;;;;;;7.57;4.97;;;14.30;99.90;;;;;;4327380;28;655582;-68
2022/09/21 12:02:36;;;;;;;8.90;5.00;;;14.50;99.90;;;;;;4367772;28;656053;-68
2022/09/21 12:05:26;;;;;;;9.73;5.53;;;14.00;99.90;;;;;;4368670;28;656152;-68
2022/09/21 12:08:33;;;;;;;8.47;5.30;;;13.10;99.90;;;;;;4372660;28;655549;-69
2022/09/21 12:11:28;;;;;;;8.13;5.47;;;12.60;99.90;;;;;;4367857;28;655981;-69
2022/09/21 12:14:21;;;;;;;10.00;5.97;;;12.30;99.90;;;;;;4346089;28;656138;-69
2022/09/21 12:17:13;;;;;;;10.73;6.47;;;12.40;99.90;;;;;;4371382;28;657156;-69
2022/09/21 12:20:03;;;;;;;17.17;7.07;;;12.40;99.90;;;;;;4369813;28;656443;-69
2022/09/21 12:22:53;;;;;;;8.57;5.30;;;12.70;99.90;;;;;;4361126;28;656357;-68
2022/09/21 12:25:42;;;;;;;11.80;4.93;;;13.10;99.90;;;;;;4366613;28;655910;-69
2022/09/21 12:28:35;;;;;;;7.67;4.00;;;13.80;99.90;;;;;;4388654;28;656847;-68
2022/09/21 12:31:24;;;;;;;5.67;3.77;;;14.20;99.90;;;;;;4371537;28;657931;-69
2022/09/21 12:34:19;;;;;;;5.67;3.83;;;14.90;99.90;;;;;;4370886;28;655686;-69
2022/09/21 12:37:08;;;;;;;7.03;4.20;;;15.50;99.90;;;;;;4350680;28;655938;-69
2022/09/21 12:39:58;;;;;;;9.13;4.60;;;15.40;99.90;;;;;;4367034;28;655499;-69
2022/09/21 12:42:48;;;;;;;10.73;4.20;;;15.80;99.90;;;;;;4371674;28;655703;-69
2022/09/21 12:45:38;;;;;;;13.47;4.80;;;15.40;99.90;;;;;;4368745;28;656804;-68
2022/09/21 12:48:30;;;;;;;10.37;4.83;;;15.10;99.90;;;;;;4364318;28;656651;-68
2022/09/21 12:51:23;;;;;;;9.18;4.00;;;14.70;99.90;;;;;;4363017;28;658203;-68
2022/09/21 12:54:17;;;;;;;10.05;3.58;;;14.30;99.90;;;;;;4372032;28;655237;-69
2022/09/21 12:57:08;;;;;;;7.83;4.30;;;14.40;99.90;;;;;;4370389;28;658622;-69
2022/09/21 12:59:59;;;;;;;7.97;3.50;;;14.20;99.90;;;;;;4340293;28;656008;-69
2022/09/21 13:02:50;;;;;;;7.47;3.70;;;14.70;99.90;;;;;;4358340;28;655655;-69
2022/09/21 13:05:41;;;;;;;6.63;3.70;;;14.50;99.90;;;;;;4348631;28;655726;-68
2022/09/21 13:08:29;;;;;;;7.53;3.67;;;14.20;99.90;;;;;;4364345;28;656580;-68
2022/09/21 13:11:20;;;;;;;3.93;2.67;;;14.90;99.90;;;;;;4373534;28;656576;-68
2022/09/21 13:14:07;;;;;;;6.60;3.70;;;14.10;99.90;;;;;;4368950;28;657882;-68
2022/09/21 13:16:56;;;;;;;5.63;3.30;;;14.50;99.90;;;;;;4385709;28;655501;-68
2022/09/21 13:19:44;;;;;;;6.53;3.23;;;14.70;99.90;;;;;;4367071;28;656609;-69
2022/09/21 13:22:32;;;;;;;7.20;3.20;;;15.30;99.90;;;;;;4371811;28;655401;-68
2022/09/21 13:25:20;;;;;;;4.27;2.97;;;15.10;99.90;;;;;;4383863;28;655192;-68
2022/09/21 13:28:20;;;;;;;6.43;3.37;;;14.70;99.90;;;;;;4367912;28;656856;-68
2022/09/21 13:31:30;;;;;;;5.30;3.33;;;14.50;99.90;;;;;;4349205;28;656374;-68
2022/09/21 13:34:22;;;;;;;4.70;2.80;;;13.70;99.90;;;;;;4368098;28;655714;-68
2022/09/21 13:37:31;;;;;;;6.30;3.33;;;13.50;99.90;;;;;;4367863;28;656886;-68
2022/09/21 13:40:40;;;;;;;5.33;2.80;;;13.50;99.90;;;;;;4366711;28;655811;-67
2022/09/21 13:44:00;;;;;;;5.83;3.63;;;13.00;99.90;;;;;;4361262;28;656491;-67
2022/09/21 13:46:57;;;;;;;3.07;2.10;;;13.50;99.90;;;;;;4364875;28;655697;-68
2022/09/21 13:49:50;;;;;;;6.53;3.63;;;13.80;99.90;;;;;;4365560;28;655232;-69
2022/09/21 13:52:42;;;;;;;7.23;3.50;;;14.60;99.90;;;;;;4352098;28;656521;-68
2022/09/21 13:55:31;;;;;;;6.97;3.53;;;15.30;99.90;;;;;;4347699;28;655351;-68
2022/09/21 13:58:20;;;;;;;4.27;2.93;;;14.10;99.90;;;;;;4353522;28;655407;-68
2022/09/21 14:01:12;;;;;;;5.40;3.30;;;14.10;99.90;;;;;;4348136;28;656649;-68
2022/09/21 14:04:00;;;;;;;5.33;3.10;;;13.60;99.90;;;;;;4359990;28;655727;-68
2022/09/21 14:06:48;;;;;;;6.90;3.37;;;13.30;99.90;;;;;;4368176;28;656238;-69
2022/09/21 14:09:39;;;;;;;5.67;2.30;;;13.30;99.90;;;;;;4372713;28;655484;-69
2022/09/21 14:12:28;;;;;;;3.63;1.90;;;12.90;99.90;;;;;;4367594;28;655781;-69
2022/09/21 14:15:43;;;;;;;5.87;1.80;;;12.60;99.90;;;;;;4372788;28;655717;-69
2022/09/21 14:18:39;;;;;;;3.00;1.40;;;12.10;99.90;;;;;;4309573;28;656369;-69
2022/09/21 14:21:26;;;;;;;4.03;1.57;;;11.50;99.90;;;;;;4369845;28;655330;-68
2022/09/21 14:24:20;;;;;;;1.93;1.30;;;10.60;99.90;;;;;;4396376;28;655736;-68
2022/09/21 14:27:15;;;;;;;1.20;1.03;;;10.60;99.90;;;;;;4344303;28;656222;-69
2022/09/21 14:30:03;;;;;;;1.90;1.23;;;10.30;99.90;;;;;;4344400;28;656102;-69
2022/09/21 14:32:54;;;;;;;2.37;1.30;;;10.30;99.90;;;;;;4370602;28;655604;-68